Alta Italia, Argentina
Current Conditions -  °F | °C
As of 11:00 AM on Friday 24 Oct 2014 (Local Time) from SAOC Reporting Station
Scattered Clouds Scattered Clouds  
Wind Chill: 81°   Ceiling: Unl
Heat Index: 82°   Visibility: 6mi
Dew Point: 64°   Wind: 12mph
Humidity: 58%   Direction: 50°NE
Pressure: 29.97"   Gusts: NA
Location:  35.37°S, 64.13°W
Report Text: SAOC 241400Z 05010KT 9999 FEW040 SCT10027/18 Q1015
Loading
Personal Weather Stations






























Interactive Weather Map New forecast layout! Learn more

10-Day Weather Forecast

Advertisements
Track Severe Weather on mobile